Time;durP1;ratioP1;P1;durP2;ratioP2;P2;SDS_P1;SDS_P2;PMS_P1;PMS_P2;Temp;Humidity;BMP_temperature;BMP_pressure;BME280_temperature;BME280_humidity;BME280_pressure;Samples;Min_cycle;Max_cycle;Signal;HPM_P1;HPM_P2
2023/10/18 00:00:03;;;;;;;34.47;21.23;;;7.20;99.90;;;;;;5074573;28;20347;-54
2023/10/18 00:02:30;;;;;;;26.17;19.60;;;7.10;99.90;;;;;;5052633;28;20314;-53
2023/10/18 00:04:57;;;;;;;24.03;17.67;;;7.20;99.90;;;;;;5051340;28;20922;-53
2023/10/18 00:07:22;;;;;;;20.43;16.10;;;7.10;99.90;;;;;;5073326;28;20193;-54
2023/10/18 00:09:49;;;;;;;18.67;14.03;;;7.00;99.90;;;;;;5071720;28;20220;-54
2023/10/18 00:12:20;;;;;;;17.03;13.43;;;7.00;99.90;;;;;;5057898;28;20703;-57
2023/10/18 00:14:46;;;;;;;13.90;11.20;;;6.90;99.90;;;;;;5071096;28;20201;-52
2023/10/18 00:17:12;;;;;;;16.40;11.90;;;6.90;99.90;;;;;;5075967;28;20284;-51
2023/10/18 00:19:40;;;;;;;26.90;19.50;;;6.80;99.90;;;;;;5060116;28;20604;-52
2023/10/18 00:22:09;;;;;;;17.00;14.07;;;6.80;99.90;;;;;;5076164;28;20200;-54
2023/10/18 00:24:35;;;;;;;19.03;12.43;;;6.80;99.90;;;;;;5076248;28;20748;-54
2023/10/18 00:27:00;;;;;;;18.43;13.73;;;6.80;99.90;;;;;;5052966;28;20204;-53
2023/10/18 00:29:26;;;;;;;19.63;13.67;;;6.80;99.90;;;;;;5075944;28;20193;-52
2023/10/18 00:31:51;;;;;;;20.07;15.03;;;6.80;99.90;;;;;;5056409;28;20216;-51
2023/10/18 00:34:18;;;;;;;20.17;14.10;;;6.70;99.90;;;;;;5075430;28;20232;-52
2023/10/18 00:36:43;;;;;;;19.63;13.07;;;6.70;99.90;;;;;;5077242;28;20201;-51
2023/10/18 00:39:21;;;;;;;18.17;14.43;;;6.70;99.90;;;;;;5075527;28;20201;-52
2023/10/18 00:41:53;;;;;;;19.77;13.83;;;6.70;99.90;;;;;;5070622;28;20680;-54
2023/10/18 00:44:21;;;;;;;18.80;13.80;;;6.70;99.90;;;;;;5074746;28;20248;-52
2023/10/18 00:46:50;;;;;;;19.07;14.67;;;6.60;99.90;;;;;;5072108;28;20206;-54
2023/10/18 00:49:16;;;;;;;18.57;13.07;;;6.60;99.90;;;;;;5058742;28;20680;-53
2023/10/18 00:51:47;;;;;;;18.80;14.63;;;6.50;99.90;;;;;;5073457;28;20208;-52
2023/10/18 00:54:14;;;;;;;16.37;12.00;;;6.40;99.90;;;;;;5055808;28;20268;-56
2023/10/18 00:56:46;;;;;;;17.27;11.97;;;6.50;99.90;;;;;;5075442;28;20285;-56
2023/10/18 00:59:21;;;;;;;17.77;13.47;;;6.50;99.90;;;;;;5074553;28;20269;-58
2023/10/18 01:01:53;;;;;;;18.90;12.83;;;6.60;99.90;;;;;;5079539;28;20734;-53
2023/10/18 01:04:23;;;;;;;17.07;12.13;;;6.60;99.90;;;;;;5076144;28;20606;-53
2023/10/18 01:06:50;;;;;;;17.77;11.83;;;6.70;99.90;;;;;;5073662;28;20206;-53
2023/10/18 01:09:17;;;;;;;13.37;11.33;;;6.90;99.90;;;;;;5073069;28;20711;-57
2023/10/18 01:11:46;;;;;;;20.90;12.20;;;6.70;99.90;;;;;;5077313;28;20250;-53
2023/10/18 01:14:18;;;;;;;15.17;11.73;;;6.50;99.90;;;;;;5075439;28;20667;-52
2023/10/18 01:16:44;;;;;;;15.43;11.33;;;6.20;99.90;;;;;;5074688;28;20229;-52
2023/10/18 01:19:14;;;;;;;12.27;10.70;;;6.20;99.90;;;;;;5074003;28;20205;-52
2023/10/18 01:21:45;;;;;;;14.07;10.40;;;6.30;99.90;;;;;;5060863;28;20188;-52
2023/10/18 01:24:14;;;;;;;17.80;11.73;;;6.30;99.90;;;;;;5075098;28;20571;-52
2023/10/18 01:26:40;;;;;;;12.70;10.07;;;6.30;99.90;;;;;;5074740;28;20194;-52
2023/10/18 01:29:09;;;;;;;13.40;10.37;;;6.20;99.90;;;;;;5074452;28;20229;-53
2023/10/18 01:31:35;;;;;;;13.30;10.43;;;6.20;99.90;;;;;;5072551;28;20235;-53
2023/10/18 01:34:03;;;;;;;15.93;11.60;;;6.10;99.90;;;;;;5055118;28;20250;-53
2023/10/18 01:36:32;;;;;;;15.90;10.57;;;6.10;99.90;;;;;;5075044;28;20224;-53
2023/10/18 01:38:58;;;;;;;11.17;10.07;;;6.00;99.90;;;;;;5076507;28;20201;-52
2023/10/18 01:41:30;;;;;;;15.97;9.47;;;6.00;99.90;;;;;;5078503;28;20201;-52
2023/10/18 01:44:05;;;;;;;18.13;10.50;;;6.00;99.90;;;;;;5072453;28;20230;-52
2023/10/18 01:46:30;;;;;;;11.63;9.67;;;5.90;99.90;;;;;;5053852;28;20204;-53
2023/10/18 01:48:57;;;;;;;12.70;10.03;;;5.90;99.90;;;;;;5073861;28;20239;-53
2023/10/18 01:51:23;;;;;;;15.00;11.00;;;5.80;99.90;;;;;;5075918;28;20251;-52
2023/10/18 01:53:50;;;;;;;16.47;10.07;;;5.90;99.90;;;;;;5072279;28;20217;-53
2023/10/18 01:56:19;;;;;;;16.07;11.33;;;6.00;99.90;;;;;;5055766;28;20278;-52
2023/10/18 01:58:46;;;;;;;18.10;11.80;;;6.10;99.90;;;;;;5049849;28;20898;-54
2023/10/18 02:01:16;;;;;;;16.17;11.43;;;5.90;99.90;;;;;;5073338;28;20289;-54
2023/10/18 02:03:42;;;;;;;14.17;11.23;;;5.70;99.90;;;;;;5072185;28;20200;-57
2023/10/18 02:06:08;;;;;;;18.20;12.30;;;5.70;99.90;;;;;;5068762;28;20190;-52
2023/10/18 02:08:34;;;;;;;15.43;11.50;;;5.70;99.90;;;;;;5070277;28;20188;-54
2023/10/18 02:11:05;;;;;;;16.20;11.27;;;5.70;99.90;;;;;;5068278;28;20190;-54
2023/10/18 02:13:31;;;;;;;15.87;10.87;;;5.70;99.90;;;;;;5074655;28;20258;-52
2023/10/18 02:15:57;;;;;;;16.23;10.40;;;5.70;99.90;;;;;;5079456;28;20211;-53
2023/10/18 02:18:23;;;;;;;16.97;10.33;;;5.70;99.90;;;;;;5049510;28;20228;-52
2023/10/18 02:20:52;;;;;;;15.53;11.30;;;5.50;99.90;;;;;;5073495;28;20765;-52
2023/10/18 02:23:19;;;;;;;16.43;10.87;;;5.20;99.90;;;;;;5080788;28;20227;-52
2023/10/18 02:25:45;;;;;;;13.97;10.50;;;5.10;99.90;;;;;;5073351;28;20619;-52
2023/10/18 02:28:28;;;;;;;14.37;9.90;;;5.00;99.90;;;;;;5073627;28;20202;-52
2023/10/18 02:31:07;;;;;;;15.40;11.20;;;4.90;99.90;;;;;;5076884;28;20838;-52
2023/10/18 02:33:36;;;;;;;15.30;11.27;;;5.00;99.90;;;;;;5048477;28;20197;-52
2023/10/18 02:36:07;;;;;;;15.57;10.90;;;5.10;99.90;;;;;;5070466;28;20687;-52
2023/10/18 02:38:33;;;;;;;13.33;9.33;;;5.00;99.90;;;;;;5065033;28;20206;-52
2023/10/18 02:41:02;;;;;;;12.70;9.93;;;5.10;99.90;;;;;;5074756;28;20204;-52
2023/10/18 02:43:29;;;;;;;11.90;10.03;;;5.30;99.90;;;;;;5073280;28;20224;-51
2023/10/18 02:45:54;;;;;;;17.70;11.17;;;5.60;99.90;;;;;;5070011;28;20185;-52
2023/10/18 02:48:24;;;;;;;14.90;10.10;;;5.60;99.90;;;;;;5071229;28;20398;-51
2023/10/18 02:50:51;;;;;;;16.37;11.43;;;5.40;99.90;;;;;;5067323;28;20995;-52
2023/10/18 02:53:17;;;;;;;13.70;10.17;;;5.50;99.90;;;;;;5067472;28;20671;-52
2023/10/18 02:55:55;;;;;;;13.90;10.47;;;5.40;99.90;;;;;;5071597;28;20213;-52
2023/10/18 02:58:21;;;;;;;13.53;11.40;;;5.40;99.90;;;;;;5049518;28;20406;-51
2023/10/18 03:00:47;;;;;;;15.00;11.23;;;5.50;99.90;;;;;;5050894;28;20198;-52
2023/10/18 03:03:12;;;;;;;15.87;11.23;;;5.30;99.90;;;;;;5072783;28;20247;-52
2023/10/18 03:05:41;;;;;;;15.93;12.37;;;5.20;99.90;;;;;;5054796;28;20193;-52
2023/10/18 03:08:08;;;;;;;16.60;12.17;;;5.40;99.90;;;;;;5068579;28;20193;-52
2023/10/18 03:10:45;;;;;;;13.67;12.23;;;5.30;99.90;;;;;;5056284;28;20205;-52
2023/10/18 03:13:11;;;;;;;13.73;11.90;;;5.50;99.90;;;;;;5069945;28;20192;-52
2023/10/18 03:16:04;;;;;;;19.30;12.47;;;5.60;99.90;;;;;;5072508;28;20216;-51
2023/10/18 03:18:26;;;;;;;16.77;12.27;;;5.50;99.90;;;;;;5071949;28;20213;-52
2023/10/18 03:20:57;;;;;;;17.53;12.07;;;5.20;99.90;;;;;;5072761;28;20232;-54
2023/10/18 03:23:26;;;;;;;17.90;12.73;;;5.00;99.90;;;;;;5068561;28;20198;-53
2023/10/18 03:26:04;;;;;;;14.20;11.87;;;5.00;99.90;;;;;;5072829;28;20200;-52
2023/10/18 03:28:34;;;;;;;17.77;12.27;;;5.20;99.90;;;;;;5072667;28;20536;-52
2023/10/18 03:31:04;;;;;;;16.70;12.63;;;5.20;99.90;;;;;;5072417;28;20771;-57
2023/10/18 03:33:32;;;;;;;13.63;11.93;;;5.30;99.90;;;;;;5072123;28;20722;-57
2023/10/18 03:36:17;;;;;;;16.03;12.67;;;5.20;99.90;;;;;;5071737;28;20298;-57
2023/10/18 03:38:43;;;;;;;18.47;13.60;;;5.10;99.90;;;;;;5049321;28;21109;-52
2023/10/18 03:41:15;;;;;;;19.83;13.67;;;5.20;99.90;;;;;;5049634;28;20229;-52
2023/10/18 03:43:41;;;;;;;16.13;12.67;;;5.20;99.90;;;;;;5064159;28;20715;-52
2023/10/18 03:48:45;;;;;;;17.20;12.13;;;5.30;99.90;;;;;;5072446;28;20221;-52
2023/10/18 03:51:17;;;;;;;13.10;11.47;;;5.40;99.90;;;;;;5073744;28;20204;-51
2023/10/18 03:53:43;;;;;;;15.17;12.07;;;5.30;99.90;;;;;;5068071;28;20197;-51
2023/10/18 03:56:09;;;;;;;16.23;12.70;;;5.40;99.90;;;;;;5053899;28;20786;-52
2023/10/18 03:58:36;;;;;;;14.60;11.97;;;5.50;99.90;;;;;;5072812;28;20660;-53
2023/10/18 04:01:02;;;;;;;19.07;11.97;;;5.50;99.90;;;;;;5064386;28;20198;-52
2023/10/18 04:03:29;;;;;;;17.03;13.07;;;5.60;99.90;;;;;;5066912;28;20204;-53
2023/10/18 04:06:03;;;;;;;14.63;12.43;;;5.60;99.90;;;;;;5048207;28;20247;-57
2023/10/18 04:08:28;;;;;;;19.03;14.00;;;5.50;99.90;;;;;;5066989;28;20196;-53
2023/10/18 04:10:58;;;;;;;17.17;12.50;;;5.50;99.90;;;;;;5054220;28;20274;-53
2023/10/18 04:13:25;;;;;;;19.10;12.03;;;5.40;99.90;;;;;;5068089;28;20200;-53
2023/10/18 04:15:59;;;;;;;16.27;13.07;;;5.30;99.90;;;;;;5053442;28;20247;-51
2023/10/18 04:18:30;;;;;;;16.73;13.30;;;5.30;99.90;;;;;;5053301;28;20223;-51
2023/10/18 04:20:59;;;;;;;15.30;11.57;;;5.40;99.90;;;;;;5067899;28;20229;-52
2023/10/18 04:23:28;;;;;;;16.50;12.37;;;5.70;99.90;;;;;;5071869;28;20908;-52
2023/10/18 04:25:57;;;;;;;16.13;12.87;;;5.70;99.90;;;;;;5071854;28;20197;-52
2023/10/18 04:28:23;;;;;;;14.70;12.80;;;5.70;99.90;;;;;;5063305;28;20194;-51
2023/10/18 04:30:59;;;;;;;15.70;12.63;;;5.60;99.90;;;;;;5064390;28;20700;-51
2023/10/18 04:33:34;;;;;;;14.70;12.37;;;5.50;99.90;;;;;;5063390;28;20193;-52
2023/10/18 04:36:10;;;;;;;16.83;11.97;;;5.50;99.90;;;;;;5069401;28;20230;-51
2023/10/18 04:38:46;;;;;;;16.37;11.87;;;5.40;99.90;;;;;;5071857;28;20239;-53
2023/10/18 04:41:24;;;;;;;15.17;12.37;;;5.30;99.90;;;;;;5071403;28;20197;-51
2023/10/18 04:43:51;;;;;;;17.87;13.00;;;5.30;99.90;;;;;;5060444;28;20220;-52
2023/10/18 04:46:18;;;;;;;18.37;13.63;;;5.30;99.90;;;;;;5068936;28;20206;-51
2023/10/18 04:54:08;;;;;;;19.17;13.43;;;5.40;99.90;;;;;;5069043;28;20204;-52
2023/10/18 04:56:44;;;;;;;21.53;13.50;;;5.50;99.90;;;;;;5070128;28;20896;-52
2023/10/18 05:04:24;;;;;;;17.10;12.20;;;5.60;99.90;;;;;;5070397;28;20212;-51
2023/10/18 05:06:54;;;;;;;17.40;14.20;;;5.60;99.90;;;;;;5071992;28;20236;-52
2023/10/18 05:09:31;;;;;;;18.40;13.20;;;5.50;99.90;;;;;;5054902;28;20201;-51
2023/10/18 05:12:07;;;;;;;17.50;12.70;;;5.70;99.90;;;;;;5072229;28;20702;-52
2023/10/18 05:14:36;;;;;;;19.10;13.17;;;5.90;99.90;;;;;;5074860;28;20575;-52
2023/10/18 05:17:10;;;;;;;15.07;13.00;;;5.80;99.90;;;;;;5071266;28;20206;-51
2023/10/18 05:19:41;;;;;;;19.27;14.57;;;5.60;99.90;;;;;;5075402;28;20200;-51
2023/10/18 05:22:08;;;;;;;18.53;13.00;;;5.50;99.90;;;;;;5073212;28;20925;-51
2023/10/18 05:24:37;;;;;;;16.17;12.13;;;5.50;99.90;;;;;;5069542;28;20280;-52
2023/10/18 05:27:19;;;;;;;20.87;14.50;;;5.40;99.90;;;;;;5073641;28;20660;-52
2023/10/18 05:29:51;;;;;;;17.93;12.00;;;5.40;99.90;;;;;;5075097;28;20201;-52
2023/10/18 05:35:19;;;;;;;28.83;16.13;;;5.40;99.90;;;;;;5074273;28;20258;-51
2023/10/18 05:37:51;;;;;;;18.43;14.67;;;5.40;99.90;;;;;;5073071;28;20394;-52
2023/10/18 05:43:03;;;;;;;15.87;12.07;;;5.50;99.90;;;;;;5071078;28;20224;-52
2023/10/18 05:45:33;;;;;;;20.07;13.80;;;5.60;99.90;;;;;;5051425;28;20300;-52
2023/10/18 05:48:12;;;;;;;15.77;12.90;;;5.60;99.90;;;;;;5066377;28;20285;-52
2023/10/18 05:50:45;;;;;;;17.73;14.60;;;5.60;99.90;;;;;;5070118;28;20706;-50
2023/10/18 05:53:11;;;;;;;19.93;12.83;;;5.60;99.90;;;;;;5074322;28;20198;-52
2023/10/18 05:55:40;;;;;;;16.40;13.40;;;5.60;99.90;;;;;;5074277;28;20213;-51
2023/10/18 05:58:06;;;;;;;17.80;13.23;;;5.50;99.90;;;;;;5066636;28;20284;-53
2023/10/18 06:00:35;;;;;;;20.40;13.17;;;5.50;99.90;;;;;;5076883;28;20276;-54
2023/10/18 06:03:01;;;;;;;20.67;14.23;;;5.60;99.90;;;;;;5058150;28;20193;-54
2023/10/18 06:05:35;;;;;;;16.37;12.00;;;5.70;99.90;;;;;;5074137;28;20209;-54
2023/10/18 06:08:01;;;;;;;24.70;14.20;;;5.70;99.90;;;;;;5075577;28;20193;-51
2023/10/18 06:10:26;;;;;;;20.63;14.03;;;5.60;99.90;;;;;;5074467;28;20255;-52
2023/10/18 06:13:05;;;;;;;20.77;14.53;;;5.60;99.90;;;;;;5055569;28;20200;-52
2023/10/18 06:15:34;;;;;;;18.40;15.20;;;5.50;99.90;;;;;;5071214;28;20204;-51
2023/10/18 06:18:00;;;;;;;17.93;13.23;;;5.30;99.90;;;;;;5069875;28;20573;-53
2023/10/18 06:23:07;;;;;;;16.47;12.13;;;5.30;99.90;;;;;;5069875;28;20225;-53
2023/10/18 06:25:37;;;;;;;20.07;13.67;;;5.30;99.90;;;;;;5072717;28;20198;-59
2023/10/18 06:28:09;;;;;;;20.10;14.80;;;5.40;99.90;;;;;;5055274;28;20678;-52
2023/10/18 06:30:41;;;;;;;19.23;14.80;;;5.50;99.90;;;;;;5073792;28;20536;-52
2023/10/18 06:33:12;;;;;;;23.57;17.57;;;5.60;99.90;;;;;;5071730;28;20182;-52
2023/10/18 06:35:51;;;;;;;24.27;15.93;;;5.60;99.90;;;;;;5070591;28;20224;-52
2023/10/18 06:38:22;;;;;;;24.17;15.70;;;5.60;99.90;;;;;;5062570;28;20198;-52
2023/10/18 06:41:00;;;;;;;16.97;14.80;;;5.60;99.90;;;;;;5073517;28;20197;-52
2023/10/18 06:43:26;;;;;;;19.07;15.13;;;5.70;99.90;;;;;;5069042;28;20225;-51
2023/10/18 06:45:57;;;;;;;20.93;15.00;;;6.00;99.90;;;;;;5069188;28;20207;-51
2023/10/18 06:48:26;;;;;;;23.60;15.43;;;6.00;99.90;;;;;;5073203;28;20679;-53
2023/10/18 06:50:53;;;;;;;22.70;15.77;;;6.10;99.90;;;;;;5073153;28;20705;-53
2023/10/18 06:53:20;;;;;;;23.37;15.77;;;6.10;99.90;;;;;;5069963;28;20679;-52
2023/10/18 06:55:56;;;;;;;21.43;15.03;;;6.10;99.90;;;;;;5063397;28;20493;-52
2023/10/18 07:00:51;;;;;;;24.17;16.27;;;6.20;99.90;;;;;;5068950;28;20552;-52
2023/10/18 07:03:18;;;;;;;22.87;15.47;;;6.40;99.90;;;;;;5072875;28;20559;-52
2023/10/18 07:05:49;;;;;;;18.13;14.57;;;6.60;99.90;;;;;;5072669;28;20221;-52
2023/10/18 07:08:19;;;;;;;20.57;14.20;;;6.70;99.90;;;;;;5072917;28;20194;-52
2023/10/18 07:10:55;;;;;;;16.53;14.47;;;6.90;99.90;;;;;;5070254;28;20223;-51
2023/10/18 07:13:33;;;;;;;18.43;13.97;;;7.00;99.90;;;;;;5069614;28;20216;-51
2023/10/18 07:16:05;;;;;;;22.07;14.33;;;7.10;99.90;;;;;;5065160;28;20728;-52
2023/10/18 07:18:33;;;;;;;20.50;13.73;;;7.00;99.90;;;;;;5072225;28;20285;-51
2023/10/18 07:21:05;;;;;;;16.97;13.47;;;7.00;99.90;;;;;;5072629;28;20300;-51
2023/10/18 07:23:31;;;;;;;15.07;12.53;;;7.00;99.90;;;;;;5064638;28;21004;-52
2023/10/18 07:25:56;;;;;;;14.73;11.73;;;7.20;99.90;;;;;;5071278;28;20216;-52
2023/10/18 07:28:29;;;;;;;20.53;13.17;;;7.30;99.90;;;;;;5072084;28;20197;-52
2023/10/18 07:30:55;;;;;;;16.03;13.47;;;7.40;99.90;;;;;;5072864;28;20204;-52
2023/10/18 07:33:23;;;;;;;22.50;13.90;;;7.50;99.90;;;;;;5073218;28;20197;-52
2023/10/18 07:35:49;;;;;;;21.03;12.43;;;7.70;99.90;;;;;;5069719;28;20221;-52
2023/10/18 07:38:25;;;;;;;13.03;10.67;;;7.90;99.90;;;;;;5051367;28;20766;-51
2023/10/18 07:40:59;;;;;;;11.70;8.57;;;8.00;99.90;;;;;;5068726;28;20249;-53
2023/10/18 07:43:25;;;;;;;11.27;9.37;;;8.10;99.90;;;;;;5071587;28;20213;-53
2023/10/18 07:45:55;;;;;;;14.63;8.57;;;8.20;99.90;;;;;;5068213;28;20221;-53
2023/10/18 07:48:20;;;;;;;12.00;8.97;;;8.40;99.90;;;;;;5068380;28;20197;-52
2023/10/18 07:50:52;;;;;;;13.23;9.10;;;8.50;99.90;;;;;;5070514;28;20209;-52
2023/10/18 07:53:20;;;;;;;11.83;8.77;;;8.60;99.90;;;;;;5051959;28;20232;-52
2023/10/18 07:55:48;;;;;;;9.87;8.07;;;8.50;99.90;;;;;;5069706;28;20221;-52
2023/10/18 07:58:25;;;;;;;15.33;8.70;;;7.90;99.90;;;;;;5065451;28;20205;-52
2023/10/18 08:03:31;;;;;;;12.63;9.03;;;8.40;99.90;;;;;;5068973;28;20227;-53
2023/10/18 08:05:58;;;;;;;10.30;9.23;;;8.50;99.90;;;;;;5068511;28;20260;-52
2023/10/18 08:08:26;;;;;;;15.23;9.40;;;8.60;99.90;;;;;;5070366;28;20572;-52
2023/10/18 08:10:55;;;;;;;9.97;8.33;;;8.40;99.90;;;;;;5065968;28;20210;-53
2023/10/18 08:13:28;;;;;;;9.87;8.83;;;8.50;99.90;;;;;;5069487;28;20201;-52
2023/10/18 08:15:56;;;;;;;10.37;8.70;;;8.60;99.90;;;;;;5071831;28;20216;-51
2023/10/18 08:18:39;;;;;;;12.13;8.10;;;8.50;99.90;;;;;;5053034;28;20198;-52
2023/10/18 08:21:08;;;;;;;11.67;10.50;;;8.60;99.90;;;;;;5064247;28;20208;-53
2023/10/18 08:23:35;;;;;;;12.13;9.63;;;8.60;99.90;;;;;;5053855;28;20193;-52
2023/10/18 08:26:04;;;;;;;11.50;8.67;;;8.70;99.90;;;;;;5053923;28;20190;-53
2023/10/18 08:28:42;;;;;;;11.70;9.70;;;8.80;99.90;;;;;;5069770;28;20193;-52
2023/10/18 08:31:34;;;;;;;12.90;8.40;;;9.00;99.90;;;;;;5069221;28;20242;-52
2023/10/18 08:34:06;;;;;;;12.77;9.00;;;9.10;99.90;;;;;;5071173;28;20201;-52
2023/10/18 08:36:32;;;;;;;11.07;9.87;;;9.20;99.90;;;;;;5052291;28;20232;-52
2023/10/18 08:38:59;;;;;;;15.40;9.37;;;9.10;99.90;;;;;;5071542;28;20197;-52
2023/10/18 08:41:36;;;;;;;9.90;8.90;;;9.30;99.90;;;;;;5056470;28;20201;-52
2023/10/18 08:44:19;;;;;;;11.00;8.80;;;9.20;99.90;;;;;;5071381;28;20241;-52
2023/10/18 08:47:11;;;;;;;9.90;8.90;;;9.30;99.90;;;;;;5074479;28;20205;-53
2023/10/18 08:49:53;;;;;;;10.57;9.47;;;9.30;99.90;;;;;;5053859;28;20204;-53
2023/10/18 08:52:28;;;;;;;9.30;8.40;;;9.40;99.90;;;;;;5072160;28;20202;-53
2023/10/18 08:54:55;;;;;;;12.23;10.37;;;9.50;99.90;;;;;;5072579;28;20252;-52
2023/10/18 08:57:36;;;;;;;11.43;9.47;;;9.60;99.90;;;;;;5074818;28;20251;-52
2023/10/18 09:01:02;;;;;;;9.90;8.27;;;9.50;99.90;;;;;;5073825;28;20189;-51
2023/10/18 09:03:07;;;;;;;9.10;8.07;;;9.60;99.90;;;;;;5074825;28;20216;-52
2023/10/18 09:05:35;;;;;;;10.33;9.23;;;9.80;99.90;;;;;;5075855;28;20200;-52
2023/10/18 09:08:03;;;;;;;10.23;8.90;;;9.90;99.90;;;;;;5067629;28;20201;-52
2023/10/18 09:10:33;;;;;;;8.33;7.53;;;9.90;99.90;;;;;;5075254;28;20227;-56
2023/10/18 09:18:21;;;;;;;6.80;6.10;;;10.00;99.90;;;;;;5073099;28;20193;-53
2023/10/18 09:20:48;;;;;;;9.70;7.03;;;10.10;99.90;;;;;;5074631;28;20576;-52
2023/10/18 09:23:20;;;;;;;8.23;7.33;;;9.90;99.90;;;;;;5074469;28;20205;-53
2023/10/18 09:26:06;;;;;;;10.93;7.60;;;10.00;99.90;;;;;;5074801;28;20236;-53
2023/10/18 09:28:35;;;;;;;9.27;8.37;;;10.10;99.90;;;;;;5056008;28;20205;-55
2023/10/18 09:31:12;;;;;;;7.67;6.90;;;10.10;99.90;;;;;;5070214;28;20765;-54
2023/10/18 09:33:48;;;;;;;8.53;6.77;;;10.20;99.90;;;;;;5071869;28;20219;-53
2023/10/18 09:36:25;;;;;;;8.83;7.97;;;10.30;99.90;;;;;;5051672;28;20258;-53
2023/10/18 09:38:55;;;;;;;10.17;8.00;;;10.30;99.90;;;;;;5070899;28;20209;-53
2023/10/18 09:41:22;;;;;;;6.93;6.20;;;10.40;99.90;;;;;;5064690;28;20485;-52
2023/10/18 09:43:48;;;;;;;7.20;5.93;;;10.30;99.90;;;;;;5071299;28;20225;-53
2023/10/18 09:46:15;;;;;;;6.37;5.63;;;10.40;99.90;;;;;;5070089;28;20279;-53
2023/10/18 09:48:43;;;;;;;8.47;6.30;;;10.40;99.90;;;;;;5073933;28;20667;-54
2023/10/18 09:51:10;;;;;;;7.10;5.87;;;10.60;99.90;;;;;;5072091;28;20201;-57
2023/10/18 09:53:42;;;;;;;5.73;5.23;;;10.70;99.90;;;;;;5074519;28;20194;-57
2023/10/18 09:56:10;;;;;;;6.93;6.10;;;10.50;99.90;;;;;;5043368;28;20211;-53
2023/10/18 09:58:42;;;;;;;6.43;5.83;;;10.60;99.90;;;;;;5073941;28;20226;-55
2023/10/18 10:01:27;;;;;;;6.63;5.93;;;10.60;99.90;;;;;;5071440;28;20194;-53
2023/10/18 10:03:56;;;;;;;8.07;6.87;;;10.80;99.90;;;;;;5068759;28;20194;-61
2023/10/18 10:06:23;;;;;;;11.70;7.10;;;10.70;99.90;;;;;;5055984;28;20565;-62
2023/10/18 10:11:36;;;;;;;6.90;6.13;;;10.80;99.90;;;;;;5072388;28;20202;-54
2023/10/18 10:14:07;;;;;;;7.27;6.50;;;10.90;99.90;;;;;;5053553;28;20198;-53
2023/10/18 10:16:34;;;;;;;11.13;7.73;;;10.90;99.90;;;;;;5070009;28;20218;-54
2023/10/18 10:19:11;;;;;;;8.37;6.33;;;11.20;99.90;;;;;;5074168;28;21047;-53
2023/10/18 10:21:38;;;;;;;7.90;6.67;;;11.30;99.90;;;;;;5071792;28;20195;-54
2023/10/18 10:24:29;;;;;;;6.80;5.90;;;11.50;99.90;;;;;;5073245;28;20750;-53
2023/10/18 10:26:53;;;;;;;9.47;6.50;;;11.90;99.90;;;;;;5070671;28;20223;-54
2023/10/18 10:29:33;;;;;;;7.80;6.37;;;12.10;99.90;;;;;;5050421;28;20848;-53
2023/10/18 10:32:06;;;;;;;6.50;5.87;;;12.40;99.90;;;;;;5069022;28;20196;-54
2023/10/18 10:34:36;;;;;;;6.43;5.80;;;12.40;99.90;;;;;;5072809;28;20211;-53
2023/10/18 10:37:23;;;;;;;6.30;5.70;;;12.60;99.90;;;;;;5068461;28;20284;-53
2023/10/18 10:40:19;;;;;;;6.13;4.97;;;12.50;99.90;;;;;;5070507;28;20204;-63
2023/10/18 10:42:46;;;;;;;7.73;5.83;;;12.60;99.90;;;;;;5068509;28;20258;-59
2023/10/18 10:45:35;;;;;;;5.60;5.20;;;12.60;99.90;;;;;;5070780;28;20253;-57
2023/10/18 10:48:37;;;;;;;6.13;4.60;;;12.40;99.90;;;;;;5052191;28;20650;-60
2023/10/18 10:51:06;;;;;;;6.80;4.77;;;12.70;99.90;;;;;;5069462;28;20721;-54
2023/10/18 10:53:48;;;;;;;5.30;4.27;;;12.60;99.90;;;;;;5070863;28;20666;-55
2023/10/18 10:56:32;;;;;;;8.07;4.70;;;12.50;99.90;;;;;;5067294;28;20830;-56
2023/10/18 10:59:03;;;;;;;4.80;4.40;;;12.50;99.90;;;;;;5065548;28;20230;-60
2023/10/18 11:01:57;;;;;;;4.63;4.23;;;12.70;99.90;;;;;;5072849;28;20192;-53
2023/10/18 11:04:25;;;;;;;5.37;4.67;;;13.30;99.90;;;;;;5067034;28;20190;-57
2023/10/18 11:07:08;;;;;;;6.17;4.60;;;13.10;99.90;;;;;;5068511;28;20702;-63
2023/10/18 11:09:38;;;;;;;6.90;5.00;;;13.10;99.90;;;;;;5070261;28;20980;-54
2023/10/18 11:12:12;;;;;;;6.93;5.00;;;13.40;98.90;;;;;;5051064;28;20981;-55
2023/10/18 11:14:38;;;;;;;3.80;3.47;;;13.50;98.50;;;;;;5047803;28;20194;-64
2023/10/18 11:17:25;;;;;;;7.07;3.80;;;13.40;99.10;;;;;;5071449;28;20737;-56
2023/10/18 11:19:53;;;;;;;4.13;3.30;;;13.80;97.20;;;;;;5070730;28;20229;-56
2023/10/18 11:22:21;;;;;;;3.83;3.33;;;13.90;96.40;;;;;;5067314;28;21022;-53
2023/10/18 11:24:49;;;;;;;3.40;3.07;;;14.00;96.50;;;;;;5069221;28;20730;-54
2023/10/18 11:27:34;;;;;;;2.87;2.37;;;13.70;95.30;;;;;;5072675;28;21064;-54
2023/10/18 11:30:22;;;;;;;4.60;2.93;;;13.90;94.60;;;;;;5071376;28;20254;-58
2023/10/18 11:32:52;;;;;;;4.47;3.00;;;14.20;94.40;;;;;;5072109;28;20236;-56
2023/10/18 11:35:26;;;;;;;4.00;3.33;;;14.20;95.00;;;;;;5072560;28;20241;-55
2023/10/18 11:37:52;;;;;;;3.63;3.23;;;14.80;95.10;;;;;;5066044;28;20201;-54
2023/10/18 11:40:29;;;;;;;2.97;2.77;;;14.80;93.10;;;;;;5066672;28;20201;-55
2023/10/18 11:42:57;;;;;;;3.10;2.80;;;15.20;91.90;;;;;;5073938;28;20243;-54
2023/10/18 11:45:29;;;;;;;5.53;3.53;;;15.60;92.60;;;;;;5061954;28;20189;-54
2023/10/18 11:47:55;;;;;;;5.03;3.20;;;15.40;92.60;;;;;;5069611;28;20614;-54
2023/10/18 11:50:23;;;;;;;5.20;3.53;;;16.10;90.70;;;;;;5056894;28;20613;-64
2023/10/18 11:52:51;;;;;;;4.63;3.60;;;15.70;90.20;;;;;;5072473;28;20209;-61
2023/10/18 11:55:16;;;;;;;4.30;3.37;;;15.60;90.50;;;;;;5061737;28;20251;-62
2023/10/18 11:57:46;;;;;;;4.93;3.30;;;15.90;88.60;;;;;;5068170;28;20193;-63
2023/10/18 12:00:28;;;;;;;3.30;3.00;;;15.50;89.70;;;;;;5066831;28;20659;-61
2023/10/18 12:02:55;;;;;;;3.93;3.57;;;15.50;92.10;;;;;;5053614;28;20655;-59
2023/10/18 12:05:24;;;;;;;3.70;3.40;;;15.90;90.10;;;;;;5067636;28;20343;-56
2023/10/18 12:07:50;;;;;;;4.73;4.00;;;16.20;90.70;;;;;;5050293;28;20197;-55
2023/10/18 12:10:26;;;;;;;3.87;3.57;;;16.20;89.50;;;;;;5067039;28;20274;-56
2023/10/18 12:12:52;;;;;;;4.43;4.03;;;16.60;87.00;;;;;;5067903;28;20189;-58
2023/10/18 12:15:19;;;;;;;4.43;3.77;;;16.40;89.70;;;;;;5068932;28;20221;-52
2023/10/18 12:17:46;;;;;;;5.70;4.13;;;16.10;89.50;;;;;;5069037;28;20236;-56
2023/10/18 12:20:12;;;;;;;4.93;4.20;;;16.60;85.10;;;;;;5070967;28;20198;-56
2023/10/18 12:22:42;;;;;;;5.00;3.80;;;16.20;86.90;;;;;;5071626;28;20189;-54
2023/10/18 12:25:08;;;;;;;6.70;4.43;;;16.60;87.30;;;;;;5071725;28;20204;-55
2023/10/18 12:27:34;;;;;;;5.03;3.67;;;16.50;88.20;;;;;;5073113;28;21741;-53
2023/10/18 12:30:09;;;;;;;5.50;4.07;;;16.40;87.20;;;;;;5070190;28;20193;-55
2023/10/18 12:32:42;;;;;;;4.57;3.83;;;16.70;87.30;;;;;;5053859;28;20209;-54
2023/10/18 12:35:13;;;;;;;4.57;3.80;;;17.30;84.80;;;;;;5073143;28;20240;-54
2023/10/18 12:37:40;;;;;;;4.77;3.77;;;17.40;85.00;;;;;;5065852;28;20650;-54
2023/10/18 12:42:55;;;;;;;3.97;3.67;;;16.90;83.50;;;;;;5066071;28;20241;-55
2023/10/18 12:45:20;;;;;;;3.90;3.50;;;16.60;84.70;;;;;;5068332;28;20197;-55
2023/10/18 12:47:47;;;;;;;5.27;4.20;;;16.60;84.90;;;;;;5067471;28;20756;-55
2023/10/18 12:50:18;;;;;;;4.27;3.90;;;16.80;84.40;;;;;;5065827;28;20284;-53
2023/10/18 12:52:44;;;;;;;3.83;3.43;;;17.00;84.10;;;;;;5070766;28;20210;-56
2023/10/18 12:55:32;;;;;;;4.53;4.13;;;17.30;83.60;;;;;;5068686;28;20221;-56
2023/10/18 12:57:56;;;;;;;4.93;3.70;;;17.20;82.50;;;;;;5070587;28;20206;-55
2023/10/18 13:00:25;;;;;;;7.00;3.83;;;16.70;84.90;;;;;;5067140;28;20204;-54
2023/10/18 13:05:39;;;;;;;3.67;3.30;;;17.10;84.60;;;;;;5066614;28;20206;-56
2023/10/18 13:08:15;;;;;;;5.17;4.00;;;17.80;86.90;;;;;;5064722;28;22694;-57
2023/10/18 13:10:43;;;;;;;5.67;4.60;;;17.10;80.90;;;;;;5044070;28;20786;-67
2023/10/18 13:13:16;;;;;;;4.80;4.30;;;16.90;82.00;;;;;;5065111;28;20258;-55
2023/10/18 13:15:42;;;;;;;4.60;4.20;;;17.20;78.50;;;;;;5069989;28;20217;-55
2023/10/18 13:18:09;;;;;;;4.73;4.00;;;17.40;81.20;;;;;;5049196;28;21008;-62
2023/10/18 13:20:37;;;;;;;6.23;4.43;;;17.80;79.70;;;;;;5049966;28;20195;-55
2023/10/18 13:23:06;;;;;;;5.37;4.07;;;18.00;80.10;;;;;;5070354;28;20205;-56
2023/10/18 13:25:49;;;;;;;5.70;4.00;;;17.90;78.00;;;;;;5066895;28;20194;-57
2023/10/18 13:28:24;;;;;;;5.47;4.37;;;18.10;78.30;;;;;;5054707;28;20284;-55
2023/10/18 13:30:51;;;;;;;4.33;3.93;;;18.00;80.30;;;;;;5074923;28;20289;-55
2023/10/18 13:33:18;;;;;;;5.30;3.80;;;17.90;78.00;;;;;;5074421;28;20245;-55
2023/10/18 13:35:44;;;;;;;6.17;3.80;;;18.00;78.10;;;;;;5073554;28;20363;-55
2023/10/18 13:38:10;;;;;;;3.67;3.37;;;17.70;77.90;;;;;;5074249;28;20202;-59